createdAt,value
2022-08-03T00:03:37.729Z,21.79
2022-08-03T00:13:40.928Z,21.68
2022-08-03T00:23:51.376Z,21.53
2022-08-03T00:33:58.090Z,21.45
2022-08-03T00:44:04.554Z,21.37
2022-08-03T00:54:07.741Z,21.20
2022-08-03T01:04:12.230Z,21.07
2022-08-03T01:14:22.502Z,21.05
2022-08-03T01:24:38.119Z,20.95
2022-08-03T01:35:06.953Z,21.01
2022-08-03T01:45:12.484Z,20.94
2022-08-03T01:55:18.948Z,20.77
2022-08-03T02:05:22.522Z,20.71
2022-08-03T02:15:28.178Z,20.48
2022-08-03T02:25:31.885Z,20.39
2022-08-03T02:35:37.315Z,20.51
2022-08-03T02:45:45.705Z,20.51
2022-08-03T02:55:51.460Z,20.55
2022-08-03T03:05:57.639Z,20.36
2022-08-03T03:16:04.871Z,20.21
2022-08-03T03:26:08.911Z,20.17
2022-08-03T03:36:13.539Z,20.21
2022-08-03T03:46:16.954Z,20.06
2022-08-03T03:56:21.529Z,20.09
2022-08-03T04:06:42.340Z,19.95
2022-08-03T04:16:49.731Z,20.42
2022-08-03T04:26:53.060Z,21.14
2022-08-03T04:37:00.692Z,21.68
2022-08-03T04:47:04.302Z,21.86
2022-08-03T04:57:08.954Z,22.37
2022-08-03T05:07:13.209Z,22.72
2022-08-03T05:17:18.278Z,22.98
2022-08-03T05:27:21.642Z,23.40
2022-08-03T05:37:26.908Z,23.95
2022-08-03T05:47:30.248Z,24.45
2022-08-03T05:57:34.943Z,24.83
2022-08-03T06:07:38.653Z,25.70
2022-08-03T06:17:48.774Z,25.94
2022-08-03T06:27:52.581Z,26.02
2022-08-03T06:37:57.152Z,26.34
2022-08-03T06:48:02.071Z,27.63
2022-08-03T06:58:06.875Z,28.19
2022-08-03T07:08:10.498Z,28.56
2022-08-03T07:18:15.016Z,29.11
2022-08-03T07:28:18.280Z,29.19
2022-08-03T07:38:22.901Z,29.64
2022-08-03T07:48:26.082Z,29.82
2022-08-03T07:58:30.739Z,30.15
2022-08-03T08:08:33.905Z,30.78
2022-08-03T08:18:38.521Z,31.15
2022-08-03T08:28:41.748Z,29.58
2022-08-03T08:38:46.354Z,29.73
2022-08-03T08:48:50.229Z,29.61
2022-08-03T08:58:59.126Z,30.19
2022-08-03T09:09:02.674Z,30.90
2022-08-03T09:19:15.035Z,31.54
2022-08-03T09:29:21.966Z,32.01
2022-08-03T09:39:41.295Z,32.08
2022-08-03T09:49:58.999Z,32.65
2022-08-03T10:00:12.360Z,33.50
2022-08-03T10:10:30.065Z,32.25
2022-08-03T10:20:39.025Z,32.33
2022-08-03T10:30:42.906Z,33.86
2022-08-03T10:40:50.475Z,34.07
2022-08-03T10:50:55.930Z,33.79
2022-08-03T11:01:00.551Z,34.29
2022-08-03T11:11:25.656Z,33.99
2022-08-03T11:22:08.518Z,35.01
2022-08-03T11:32:16.647Z,35.80
2022-08-03T11:42:48.076Z,35.75
2022-08-03T11:52:52.808Z,36.38
2022-08-03T12:03:00.532Z,36.65
2022-08-03T12:14:44.752Z,35.23
2022-08-03T12:23:34.851Z,36.06
2022-08-03T12:33:59.372Z,36.48
2022-08-03T12:44:04.470Z,34.57
2022-08-03T12:54:09.613Z,35.16
2022-08-03T13:04:27.559Z,33.98
2022-08-03T13:14:34.262Z,34.95
2022-08-03T13:24:37.448Z,34.88
2022-08-03T13:34:42.056Z,34.56
2022-08-03T13:44:45.265Z,34.35
2022-08-03T13:54:49.897Z,35.49
2022-08-03T14:04:54.691Z,34.84
2022-08-03T14:15:01.560Z,34.71
2022-08-03T14:25:09.776Z,35.26
2022-08-03T14:35:16.055Z,35.64
2022-08-03T14:45:20.085Z,34.89
2022-08-03T14:55:25.613Z,35.39
2022-08-03T15:05:41.462Z,35.36
2022-08-03T15:15:46.067Z,35.19
2022-08-03T15:26:32.398Z,34.87
2022-08-03T15:36:41.931Z,35.20
2022-08-03T15:46:45.122Z,34.61
2022-08-03T15:56:49.846Z,34.68
2022-08-03T16:06:53.110Z,34.30
2022-08-03T16:16:58.883Z,33.87
2022-08-03T16:27:02.326Z,33.73
2022-08-03T16:37:35.427Z,33.83
2022-08-03T16:47:32.533Z,33.66
2022-08-03T16:57:59.385Z,33.50
2022-08-03T17:08:04.338Z,33.33
2022-08-03T17:18:18.593Z,33.21
2022-08-03T17:28:49.098Z,33.12
2022-08-03T17:38:51.155Z,32.67
2022-08-03T17:48:56.960Z,32.16
2022-08-03T17:59:08.620Z,31.65
2022-08-03T18:10:04.045Z,30.95
2022-08-03T18:20:01.749Z,30.28
2022-08-03T18:30:01.764Z,29.73
2022-08-03T18:40:08.034Z,29.11
2022-08-03T18:50:19.068Z,28.49
2022-08-03T19:00:42.742Z,27.97
2022-08-03T19:10:57.831Z,27.56
2022-08-03T19:21:15.721Z,26.99
2022-08-03T19:31:19.183Z,26.68
2022-08-03T19:41:31.225Z,26.41
2022-08-03T19:52:01.337Z,26.12
2022-08-03T20:02:08.934Z,26.00
2022-08-03T20:12:27.958Z,25.69
2022-08-03T20:22:35.929Z,25.40
2022-08-03T20:32:42.594Z,25.02
2022-08-03T20:42:47.456Z,24.79
2022-08-03T20:52:50.908Z,24.53
2022-08-03T21:02:55.445Z,24.21
2022-08-03T21:23:34.976Z,23.76
2022-08-03T21:33:48.257Z,23.73
2022-08-03T21:43:52.945Z,23.49
2022-08-03T21:54:02.878Z,23.35
2022-08-03T22:04:11.863Z,23.22
2022-08-03T22:14:15.238Z,23.07
2022-08-03T22:24:24.033Z,23.00
2022-08-03T22:34:27.745Z,22.66
2022-08-03T22:44:33.036Z,22.47
2022-08-03T22:54:36.817Z,22.51
2022-08-03T23:04:42.625Z,22.17
2022-08-03T23:14:46.546Z,22.18
2022-08-03T23:24:51.379Z,22.10
2022-08-03T23:35:14.830Z,22.13
2022-08-03T23:45:21.149Z,21.90
2022-08-03T23:55:39.036Z,22.13
